This is the latest recevied weather packets stored in our database for station/object KE5YIM-13. If no packets are shown the sender has not sent any weather packets the latest 1 day(s).
| Time | Temp. | Humidity | Pressure | Rain* | Wind** | Luminosity | Snow |
|---|---|---|---|---|---|---|---|
| 1778074870 | 17.22° C | 80% | 1011.6 hPa | 0 mm | - | 316 W/m² | - |
| 1778074568 | 16.67° C | 80% | 1011.4 hPa | 0 mm | - | 389 W/m² | - |
| 1778073962 | 16.67° C | 81% | 1011.3 hPa | 0 mm | - | 315 W/m² | - |
| 1778073659 | 16.67° C | 82% | 1011.1 hPa | 0 mm | - | 294 W/m² | - |
| 1778071238 | 16.11° C | 82% | 1011.5 hPa | 0 mm | - | 234 W/m² | - |
| 1778070935 | 16.11° C | 83% | 1011.6 hPa | 0 mm | - | 232 W/m² | - |
| 1778070028 | 16.11° C | 83% | 1012.1 hPa | 0 mm | - | 208 W/m² | - |
| 1778065185 | 14.44° C | 90% | 1012 hPa | 0 mm | - | 75 W/m² | - |
| 1778063369 | 13.33° C | 92% | 1011.8 hPa | 0 mm | - | 36 W/m² | - |
| 1778062460 | 13.33° C | 92% | 1011.7 hPa | 0 mm | - | 19 W/m² | - |
| 1778062158 | 13.33° C | 92% | 1011.5 hPa | 0 mm | - | 14 W/m² | - |
| 1778061856 | 13.33° C | 92% | 1011.6 hPa | 0 mm | - | 10 W/m² | - |
| 1778061252 | 13.33° C | 92% | 1011.5 hPa | 0 mm | - | 5 W/m² | - |
| 1778060948 | 13.33° C | 91% | 1011.5 hPa | 0 mm | - | 4 W/m² | - |
| 1778060647 | 13.33° C | 91% | 1011.5 hPa | 0 mm | - | 2 W/m² | - |
| 1778060344 | 13.33° C | 91% | 1011.5 hPa | 0 mm | - | 1 W/m² | - |
| 1778059739 | 13.33° C | 90% | 1011.6 hPa | 0 mm | - | 0 W/m² | - |
| 1778059437 | 13.33° C | 90% | 1011.6 hPa | 0 mm | - | 0 W/m² | - |
| 1778059133 | 13.33° C | 90% | 1011.7 hPa | 0 mm | - | 0 W/m² | - |
| 1778058831 | 13.33° C | 90% | 1011.5 hPa | 0 mm | - | 0 W/m² | - |
| 1778058528 | 13.33° C | 89% | 1011.8 hPa | 0 mm | - | 0 W/m² | - |
| 1778058226 | 13.33° C | 89% | 1011.7 hPa | 0 mm | - | 0 W/m² | - |
| 1778057922 | 13.89° C | 89% | 1011.6 hPa | 0 mm | - | 0 W/m² | - |
| 1778057315 | 13.89° C | 89% | 1011.9 hPa | 0 mm | - | 0 W/m² | - |
| 1778057012 | 13.89° C | 89% | 1011.9 hPa | 0 mm | - | 0 W/m² | - |
* Rain latest hour (hover to see other rain measurements)
** Current wind speed in m/s (hover to see current wind gust speed)